Taiseimaru — JL6483 — position and weather

sailwx.info

Track history (hours):
 
Tides and Currents Weather Stations Pressure Air Temp Water Temp Dewpoint Dewpoint Depression Visibility Wind Speed Wind Dir Waves Ship Positions

Taiseimaru

Last reported at 2016-Jun-30 12:07 UTC. Time now 2016-Jul-02 09:35 UTC.
Position N 34°36' E 134°53'.

Length 84 m; draft 4.7 m.

Type: Cargo ship. MMSI: 431500568.

Date/timePositionNaut miles runAvg speedWind from/ knotsBaromVisibWave heightAir tempDewpointWater temp
2016-Jun-30 12:07N 34°36' E 134°53'711.6
2016-Jun-30 11:33N 34°38' E 135°00'1110.9
2016-Jun-30 10:33N 34°36' E 135°13'9 8.2
2016-Jun-30 09:25N 34°37' E 135°25'0 0.0
2016-Jun-30 08:31N 34°37' E 135°25'0 0.0
2016-Jun-30 07:31N 34°37' E 135°25'0 0.0
2016-Jun-30 06:31N 34°37' E 135°25'0 0.0
2016-Jun-30 05:31N 34°37' E 135°25'0 0.0
2016-Jun-30 04:31N 34°37' E 135°25'0 0.0
2016-Jun-30 03:31N 34°37' E 135°25'0 0.0
2016-Jun-30 02:31N 34°37' E 135°25'0 0.0
2016-Jun-30 01:31N 34°37' E 135°25'0 0.0
2016-Jun-30 00:30N 34°37' E 135°25'0 0.0
2016-Jun-29 23:30N 34°37' E 135°25'2 1.6
2016-Jun-29 22:33N 34°38' E 135°23'7 6.8
2016-Jun-29 21:33N 34°31' E 135°20'0 0.3
2016-Jun-29 20:33N 34°31' E 135°20'0 0.0
2016-Jun-29 19:27N 34°31' E 135°20'0 0.0
2016-Jun-29 18:21N 34°31' E 135°20'0 0.0
2016-Jun-29 16:33N 34°31' E 135°20'0 0.0
2016-Jun-29 15:15N 34°31' E 135°20'0 0.0
2016-Jun-29 13:33N 34°31' E 135°20'0 0.0
2016-Jun-29 11:21N 34°31' E 135°20'0 0.0
2016-Jun-29 09:21N 34°31' E 135°20'0 0.0
2016-Jun-29 08:09N 34°31' E 135°20'0 0.0
2016-Jun-29 06:15N 34°31' E 135°20'0 0.0
2016-Jun-29 04:27N 34°31' E 135°20'0 0.0
2016-Jun-29 03:33N 34°31' E 135°20'0 0.0
2016-Jun-29 02:15N 34°31' E 135°20'0 0.0
2016-Jun-29 01:21N 34°31' E 135°20'0 0.0
2016-Jun-29 00:27N 34°31' E 135°20'0 0.0
2016-Jun-28 23:27N 34°31' E 135°20'0 0.0
2016-Jun-28 22:33N 34°31' E 135°20'0 0.0
2016-Jun-28 21:33N 34°31' E 135°20'0 0.0
2016-Jun-28 20:27N 34°31' E 135°20'0 0.0
2016-Jun-28 14:26N 34°31' E 135°20'0 0.0
2016-Jun-28 13:32N 34°31' E 135°20'0 0.0
2016-Jun-28 12:20N 34°31' E 135°20'0 0.0
2016-Jun-28 11:32N 34°31' E 135°20'0 0.0
2016-Jun-28 10:32N 34°31' E 135°20'0 0.0
2016-Jun-28 09:20N 34°31' E 135°20'0 0.1
2016-Jun-28 08:32N 34°31' E 135°20'0 0.0
2016-Jun-28 07:32N 34°31' E 135°20'0 0.0
2016-Jun-28 06:32N 34°31' E 135°20'0 0.0
2016-Jun-28 03:08N 34°31' E 135°20'0 0.0
2016-Jun-28 02:32N 34°31' E 135°20'0 0.0
2016-Jun-27 22:32N 34°31' E 135°20'4 3.8
2016-Jun-27 21:30N 34°27' E 135°21'0 0.0
2016-Jun-27 20:30N 34°27' E 135°21'0 0.0
2016-Jun-27 19:30N 34°27' E 135°21'0 0.0
2016-Jun-27 18:30N 34°27' E 135°21'0 0.0
2016-Jun-27 17:30N 34°27' E 135°21'0 0.0
2016-Jun-27 16:18N 34°27' E 135°21'0 0.0
2016-Jun-27 15:30N 34°27' E 135°21'0 0.0
2016-Jun-27 14:30N 34°27' E 135°21'0 0.0
2016-Jun-27 13:30N 34°27' E 135°21'0 0.0
2016-Jun-27 12:18N 34°27' E 135°21'0 0.0
2016-Jun-27 11:23N 34°27' E 135°21'0 0.0
2016-Jun-27 10:17N 34°27' E 135°21'0 0.0
2016-Jun-27 09:29N 34°27' E 135°21'0 0.0
2016-Jun-27 07:05N 34°27' E 135°21'0 0.0
2016-Jun-27 06:29N 34°27' E 135°21'0 0.0
2016-Jun-27 04:17N 34°27' E 135°21'0 0.0
2016-Jun-27 03:17N 34°27' E 135°21'0 0.0
2016-Jun-27 02:29N 34°27' E 135°21'0 0.0
2016-Jun-27 00:23N 34°27' E 135°21'0 0.0
2016-Jun-26 23:23N 34°27' E 135°21'0 0.0
2016-Jun-26 22:31N 34°27' E 135°21'2 0.4
2016-Jun-26 17:21N 34°29' E 135°20'0 0.1
2016-Jun-26 16:33N 34°29' E 135°20'0 0.0
2016-Jun-26 15:27N 34°29' E 135°20'0 0.1
2016-Jun-26 14:33N 34°29' E 135°20'0 0.0
2016-Jun-26 13:33N 34°29' E 135°20'0 0.0
2016-Jun-26 12:15N 34°29' E 135°20'0 0.0
2016-Jun-26 11:27N 34°29' E 135°20'0 0.1
2016-Jun-26 10:33N 34°29' E 135°20'6 5.7
2016-Jun-26 09:34N 34°31' E 135°13'1413.0
2016-Jun-26 08:29N 34°37' E 134°58'  
Track history (hours):
 
Tides and Currents Weather Stations Pressure Air Temp Water Temp Dewpoint Dewpoint Depression Visibility Wind Speed Wind Dir Waves Ship Positions

Taiseimaru

Last reported at 2016-Jun-30 12:07 UTC. Time now 2016-Jul-02 09:35 UTC.
Position N 34°36' E 134°53'.

Length 84 m; draft 4.7 m.

Type: Cargo ship. MMSI: 431500568.

Date/timePositionNaut miles runAvg speedWind from/ knotsBaromVisibWave heightAir tempDewpointWater temp
2016-Jun-30 12:07N 34°36' E 134°53'711.6
2016-Jun-30 11:33N 34°38' E 135°00'1110.9
2016-Jun-30 10:33N 34°36' E 135°13'9 8.2
2016-Jun-30 09:25N 34°37' E 135°25'0 0.0
2016-Jun-30 08:31N 34°37' E 135°25'0 0.0
2016-Jun-30 07:31N 34°37' E 135°25'0 0.0
2016-Jun-30 06:31N 34°37' E 135°25'0 0.0
2016-Jun-30 05:31N 34°37' E 135°25'0 0.0
2016-Jun-30 04:31N 34°37' E 135°25'0 0.0
2016-Jun-30 03:31N 34°37' E 135°25'0 0.0
2016-Jun-30 02:31N 34°37' E 135°25'0 0.0
2016-Jun-30 01:31N 34°37' E 135°25'0 0.0
2016-Jun-30 00:30N 34°37' E 135°25'0 0.0
2016-Jun-29 23:30N 34°37' E 135°25'2 1.6
2016-Jun-29 22:33N 34°38' E 135°23'7 6.8
2016-Jun-29 21:33N 34°31' E 135°20'0 0.3
2016-Jun-29 20:33N 34°31' E 135°20'0 0.0
2016-Jun-29 19:27N 34°31' E 135°20'0 0.0
2016-Jun-29 18:21N 34°31' E 135°20'0 0.0
2016-Jun-29 16:33N 34°31' E 135°20'0 0.0
2016-Jun-29 15:15N 34°31' E 135°20'0 0.0
2016-Jun-29 13:33N 34°31' E 135°20'0 0.0
2016-Jun-29 11:21N 34°31' E 135°20'0 0.0
2016-Jun-29 09:21N 34°31' E 135°20'0 0.0
2016-Jun-29 08:09N 34°31' E 135°20'0 0.0
2016-Jun-29 06:15N 34°31' E 135°20'0 0.0
2016-Jun-29 04:27N 34°31' E 135°20'0 0.0
2016-Jun-29 03:33N 34°31' E 135°20'0 0.0
2016-Jun-29 02:15N 34°31' E 135°20'0 0.0
2016-Jun-29 01:21N 34°31' E 135°20'0 0.0
2016-Jun-29 00:27N 34°31' E 135°20'0 0.0
2016-Jun-28 23:27N 34°31' E 135°20'0 0.0
2016-Jun-28 22:33N 34°31' E 135°20'0 0.0
2016-Jun-28 21:33N 34°31' E 135°20'0 0.0
2016-Jun-28 20:27N 34°31' E 135°20'0 0.0
2016-Jun-28 14:26N 34°31' E 135°20'0 0.0
2016-Jun-28 13:32N 34°31' E 135°20'0 0.0
2016-Jun-28 12:20N 34°31' E 135°20'0 0.0
2016-Jun-28 11:32N 34°31' E 135°20'0 0.0
2016-Jun-28 10:32N 34°31' E 135°20'0 0.0
2016-Jun-28 09:20N 34°31' E 135°20'0 0.1
2016-Jun-28 08:32N 34°31' E 135°20'0 0.0
2016-Jun-28 07:32N 34°31' E 135°20'0 0.0
2016-Jun-28 06:32N 34°31' E 135°20'0 0.0
2016-Jun-28 03:08N 34°31' E 135°20'0 0.0
2016-Jun-28 02:32N 34°31' E 135°20'0 0.0
2016-Jun-27 22:32N 34°31' E 135°20'4 3.8
2016-Jun-27 21:30N 34°27' E 135°21'0 0.0
2016-Jun-27 20:30N 34°27' E 135°21'0 0.0
2016-Jun-27 19:30N 34°27' E 135°21'0 0.0
2016-Jun-27 18:30N 34°27' E 135°21'0 0.0
2016-Jun-27 17:30N 34°27' E 135°21'0 0.0
2016-Jun-27 16:18N 34°27' E 135°21'0 0.0
2016-Jun-27 15:30N 34°27' E 135°21'0 0.0
2016-Jun-27 14:30N 34°27' E 135°21'0 0.0
2016-Jun-27 13:30N 34°27' E 135°21'0 0.0
2016-Jun-27 12:18N 34°27' E 135°21'0 0.0
2016-Jun-27 11:23N 34°27' E 135°21'0 0.0
2016-Jun-27 10:17N 34°27' E 135°21'0 0.0
2016-Jun-27 09:29N 34°27' E 135°21'0 0.0
2016-Jun-27 07:05N 34°27' E 135°21'0 0.0
2016-Jun-27 06:29N 34°27' E 135°21'0 0.0
2016-Jun-27 04:17N 34°27' E 135°21'0 0.0
2016-Jun-27 03:17N 34°27' E 135°21'0 0.0
2016-Jun-27 02:29N 34°27' E 135°21'0 0.0
2016-Jun-27 00:23N 34°27' E 135°21'0 0.0
2016-Jun-26 23:23N 34°27' E 135°21'0 0.0
2016-Jun-26 22:31N 34°27' E 135°21'2 0.4
2016-Jun-26 17:21N 34°29' E 135°20'0 0.1
2016-Jun-26 16:33N 34°29' E 135°20'0 0.0
2016-Jun-26 15:27N 34°29' E 135°20'0 0.1
2016-Jun-26 14:33N 34°29' E 135°20'0 0.0
2016-Jun-26 13:33N 34°29' E 135°20'0 0.0
2016-Jun-26 12:15N 34°29' E 135°20'0 0.0
2016-Jun-26 11:27N 34°29' E 135°20'0 0.1
2016-Jun-26 10:33N 34°29' E 135°20'6 5.7
2016-Jun-26 09:34N 34°31' E 135°13'1413.0
2016-Jun-26 08:29N 34°37' E 134°58'  

Dump ship's entire track history